Time;durP1;ratioP1;P1;durP2;ratioP2;P2;SDS_P1;SDS_P2;PMS_P1;PMS_P2;Temp;Humidity;BMP_temperature;BMP_pressure;BME280_temperature;BME280_humidity;BME280_pressure;Samples;Min_cycle;Max_cycle;Signal;HPM_P1;HPM_P2
2022/11/12 07:50:40;;;;;;;;;24.00;22.00;;;;;10.80;63.09;102445.81;5046560;22;45880;-64
2022/11/12 07:53:05;;;;;;;;;21.00;19.50;;;;;10.80;63.17;102430.91;4963498;28;45207;-66
2022/11/12 07:55:31;;;;;;;;;21.00;21.00;;;;;10.82;63.08;102444.09;4963217;28;46013;-63
2022/11/12 07:57:58;;;;;;;;;22.00;21.00;;;;;10.83;63.11;102453.72;4963466;28;45429;-63
2022/11/12 08:00:24;;;;;;;;;23.75;21.75;;;;;10.85;63.18;102454.66;4945987;28;45299;-64
2022/11/12 08:02:49;;;;;;;;;22.25;21.00;;;;;10.87;63.20;102459.06;4943805;28;45335;-61
2022/11/12 08:05:15;;;;;;;;;21.50;17.25;;;;;10.88;63.19;102457.34;4950594;28;46258;-59
2022/11/12 08:07:40;;;;;;;;;25.75;24.00;;;;;10.92;62.92;102453.88;4955833;28;45372;-62
2022/11/12 08:10:06;;;;;;;;;36.75;32.25;;;;;10.96;63.20;102463.53;4942491;28;45315;-62
2022/11/12 08:12:32;;;;;;;;;26.50;22.00;;;;;10.96;63.20;102460.91;4943679;28;45481;-62
2022/11/12 08:14:57;;;;;;;;;27.25;24.50;;;;;11.00;63.22;102467.09;4944425;28;62680;-60
2022/11/12 08:17:22;;;;;;;;;20.50;20.50;;;;;11.02;63.23;102463.63;4962902;28;50117;-62
2022/11/12 08:19:48;;;;;;;;;20.75;18.75;;;;;11.05;63.42;102461.00;4960932;28;45547;-64
2022/11/12 08:22:14;;;;;;;;;21.25;18.75;;;;;11.09;63.25;102471.59;4959171;28;45236;-64
2022/11/12 08:24:39;;;;;;;;;22.75;21.25;;;;;11.03;63.45;102461.88;4962479;28;47018;-61
2022/11/12 08:27:04;;;;;;;;;22.25;18.25;;;;;11.14;63.46;102473.38;4962774;28;45168;-65
2022/11/12 08:29:30;;;;;;;;;22.75;20.75;;;;;11.18;63.51;102483.09;4962869;28;45245;-66
2022/11/12 08:31:55;;;;;;;;;39.00;33.00;;;;;11.24;63.48;102484.03;4961385;28;45273;-66
2022/11/12 08:34:20;;;;;;;;;27.00;23.50;;;;;11.29;63.21;102482.34;4962829;28;46342;-63
2022/11/12 08:36:46;;;;;;;;;23.50;23.00;;;;;11.34;63.44;102478.00;4961722;28;45406;-66
2022/11/12 08:39:11;;;;;;;;;23.75;22.50;;;;;11.42;63.28;102483.34;4962429;28;46269;-65
2022/11/12 08:41:36;;;;;;;;;24.25;21.75;;;;;11.49;63.52;102482.53;4962492;28;45307;-61
2022/11/12 08:44:02;;;;;;;;;19.50;17.75;;;;;11.55;63.51;102478.19;4962313;28;45313;-65
2022/11/12 08:46:27;;;;;;;;;24.00;21.00;;;;;11.62;63.41;102479.16;4962390;28;45413;-57
2022/11/12 08:48:52;;;;;;;;;20.50;20.50;;;;;11.69;63.55;102480.97;4962392;28;45308;-58
2022/11/12 08:51:18;;;;;;;;;19.50;19.00;;;;;11.75;63.57;102480.16;4956903;28;45366;-58
2022/11/12 08:53:43;;;;;;;;;20.75;19.75;;;;;11.82;63.54;102483.69;4962187;28;45448;-58
2022/11/12 08:56:08;;;;;;;;;18.25;17.00;;;;;11.89;63.53;102480.25;4961928;28;51869;-61
2022/11/12 08:58:34;;;;;;;;;22.50;19.25;;;;;11.98;63.30;102482.13;4962349;28;45557;-65
2022/11/12 09:01:07;;;;;;;;;21.75;21.00;;;;;12.07;63.41;102479.53;4962525;28;45563;-60
2022/11/12 09:03:32;;;;;;;;;19.25;18.75;;;;;12.16;63.29;102476.09;4960726;28;47894;-63
2022/11/12 09:06:01;;;;;;;;;19.50;18.50;;;;;12.25;63.50;102470.91;4961527;28;45450;-63
2022/11/12 09:08:27;;;;;;;;;21.75;20.50;;;;;12.33;63.35;102473.56;4961820;28;45441;-63
2022/11/12 09:10:52;;;;;;;;;21.00;18.50;;;;;12.43;63.31;102477.16;4962208;28;45415;-63
2022/11/12 09:13:18;;;;;;;;;17.75;17.50;;;;;12.48;63.55;102464.88;4960765;28;45975;-63
2022/11/12 09:15:45;;;;;;;;;24.25;22.50;;;;;12.62;63.50;102471.09;4962135;28;45326;-63
2022/11/12 09:18:13;;;;;;;;;32.00;27.00;;;;;12.73;63.52;102475.53;4961949;28;45394;-63
2022/11/12 09:20:39;;;;;;;;;28.00;25.75;;;;;12.83;63.56;102478.22;4956526;28;45413;-68
2022/11/12 09:23:10;;;;;;;;;27.25;26.00;;;;;12.94;63.19;102480.91;4961779;28;45377;-68
2022/11/12 09:25:37;;;;;;;;;27.25;25.75;;;;;13.06;63.60;102476.56;4960729;28;46087;-69
2022/11/12 09:28:13;;;;;;;;;28.00;25.50;;;;;13.17;63.58;102474.81;4960735;28;45399;-69
2022/11/12 09:30:45;;;;;;;;;24.50;24.50;;;;;13.25;63.36;102467.78;4961852;28;45406;-67
2022/11/12 09:33:15;;;;;;;;;35.50;30.25;;;;;13.37;63.38;102460.75;4960239;28;47269;-67
2022/11/12 09:35:42;;;;;;;;;32.75;27.25;;;;;13.47;63.02;102470.50;4962061;28;45512;-66
2022/11/12 09:38:07;;;;;;;;;33.25;28.75;;;;;13.56;63.35;102461.69;4961658;28;45530;-68
2022/11/12 09:40:52;;;;;;;;;32.25;29.25;;;;;13.69;63.30;102473.16;4961554;28;45382;-61
2022/11/12 09:43:24;;;;;;;;;33.00;30.00;;;;;13.81;63.29;102465.22;4961502;28;45291;-63
2022/11/12 09:45:52;;;;;;;;;31.25;27.75;;;;;13.92;63.42;102470.50;4961468;28;45377;-70
2022/11/12 09:48:24;;;;;;;;;33.00;30.00;;;;;14.03;63.37;102475.81;4961405;28;45267;-69
2022/11/12 09:51:20;;;;;;;;;33.50;31.75;;;;;14.18;62.76;102478.41;4955859;28;45522;-70
2022/11/12 09:54:17;;;;;;;;;32.50;30.50;;;;;14.33;62.73;102472.22;4959657;28;46320;-70
2022/11/12 09:56:43;;;;;;;;;30.25;29.25;;;;;14.43;62.83;102468.66;4952561;28;45307;-71
2022/11/12 09:59:12;;;;;;;;;32.25;28.25;;;;;14.57;63.38;102467.75;4961297;28;45201;-69
2022/11/12 10:01:49;;;;;;;;;22.25;21.00;;;;;14.70;62.86;102473.91;4961495;28;45407;-67
2022/11/12 10:04:29;;;;;;;;;23.75;22.75;;;;;14.81;63.04;102461.50;4961205;28;46368;-58
2022/11/12 10:07:11;;;;;;;;;29.00;25.75;;;;;14.92;62.67;102469.41;4956127;28;45235;-54
2022/11/12 10:10:02;;;;;;;;;25.75;22.75;;;;;15.05;62.73;102471.06;4961252;28;45279;-55
2022/11/12 10:12:42;;;;;;;;;29.75;25.75;;;;;15.15;62.85;102471.03;4958383;28;45357;-54
2022/11/12 10:18:22;;;;;;;;;20.50;20.25;;;;;15.28;62.69;102468.31;4961256;28;45216;-50
2022/11/12 10:20:54;;;;;;;;;22.25;20.50;;;;;15.45;62.55;102469.97;4941719;28;45441;-53
2022/11/12 10:23:20;;;;;;;;;25.00;22.75;;;;;15.54;62.28;102467.22;4960750;28;45271;-53
2022/11/12 10:25:49;;;;;;;;;27.50;24.75;;;;;15.62;62.85;102464.50;4961088;28;45373;-54
2022/11/12 10:28:33;;;;;;;;;22.00;21.25;;;;;15.75;62.49;102470.63;4960858;28;45315;-55
2022/11/12 10:31:11;;;;;;;;;19.25;19.25;;;;;15.85;62.23;102479.41;4959090;28;45409;-54
2022/11/12 10:33:36;;;;;;;;;21.00;21.00;;;;;15.94;62.65;102471.38;4959895;28;45327;-52
2022/11/12 10:36:17;;;;;;;;;23.75;21.50;;;;;16.07;62.50;102472.13;4959084;28;45524;-55
2022/11/12 10:38:46;;;;;;;;;22.50;22.25;;;;;16.13;62.56;102456.16;4959386;28;45315;-54
2022/11/12 10:41:29;;;;;;;;;27.00;25.25;;;;;16.23;62.16;102455.16;4960698;28;45398;-54
2022/11/12 10:44:04;;;;;;;;;28.00;26.00;;;;;16.33;62.20;102455.06;4959424;28;45192;-55
2022/11/12 10:46:35;;;;;;;;;30.00;27.50;;;;;16.42;62.30;102454.97;4960598;28;45271;-53
2022/11/12 10:49:04;;;;;;;;;33.00;29.25;;;;;16.53;62.09;102457.50;4960548;28;45437;-54
2022/11/12 10:51:31;;;;;;;;;29.00;27.50;;;;;16.63;62.24;102448.53;4960932;28;45319;-56
2022/11/12 10:53:57;;;;;;;;;26.00;23.75;;;;;16.73;61.93;102439.53;4959179;28;45398;-55
2022/11/12 10:56:29;;;;;;;;;32.25;28.50;;;;;16.85;61.90;102446.44;4960467;28;45412;-55
2022/11/12 10:59:24;;;;;;;;;26.50;23.00;;;;;16.95;62.15;102441.06;4961628;28;45260;-56
2022/11/12 11:01:57;;;;;;;;;30.75;29.00;;;;;17.04;61.96;102433.84;4963576;28;45286;-54
2022/11/12 11:04:36;;;;;;;;;29.50;27.00;;;;;17.14;61.67;102426.59;4962603;28;45255;-55
2022/11/12 11:07:18;;;;;;;;;28.75;26.75;;;;;17.24;61.83;102415.84;4963765;28;46605;-55
2022/11/12 11:09:55;;;;;;;;;27.00;25.50;;;;;17.30;61.63;102413.97;4963754;28;45176;-54
2022/11/12 11:12:29;;;;;;;;;25.25;23.50;;;;;17.39;61.85;102418.25;4962642;28;45462;-55
2022/11/12 11:15:17;;;;;;;;;28.50;23.50;;;;;17.48;61.24;102418.13;4964130;28;45229;-56
2022/11/12 11:17:43;;;;;;;;;27.00;25.25;;;;;17.57;61.20;102413.53;4962542;28;47883;-55
2022/11/12 11:20:34;;;;;;;;;31.00;27.75;;;;;17.65;61.10;102411.66;4962358;28;45339;-56
2022/11/12 11:23:23;;;;;;;;;24.25;23.00;;;;;17.75;61.35;102410.56;4964171;28;45334;-54
2022/11/12 11:25:53;;;;;;;;;26.50;24.00;;;;;17.84;61.10;102409.53;4963598;28;45323;-55
2022/11/12 11:28:39;;;;;;;;;23.25;21.50;;;;;17.92;61.27;102409.38;4963546;28;46009;-54
2022/11/12 11:31:17;;;;;;;;;27.25;23.25;;;;;17.99;60.50;102409.25;4962436;28;45339;-53
2022/11/12 11:33:45;;;;;;;;;36.00;31.50;;;;;18.09;60.95;102404.66;4963973;28;45334;-57
2022/11/12 11:36:28;;;;;;;;;29.00;27.00;;;;;18.18;60.95;102398.28;4963588;28;45409;-55
2022/11/12 11:39:01;;;;;;;;;32.75;29.75;;;;;18.26;61.08;102396.31;4963388;28;45411;-55
2022/11/12 11:41:57;;;;;;;;;27.50;25.25;;;;;18.36;60.81;102383.72;4963387;28;45508;-55
2022/11/12 11:44:39;;;;;;;;;34.75;32.25;;;;;18.45;60.47;102378.22;4953916;28;45460;-56
2022/11/12 11:47:25;;;;;;;;;35.50;29.00;;;;;18.52;60.55;102371.81;4962120;28;45338;-55
2022/11/12 11:50:13;;;;;;;;;25.50;23.00;;;;;18.67;60.85;102375.94;4963186;28;45667;-54
2022/11/12 11:53:19;;;;;;;;;31.75;29.00;;;;;18.80;60.83;102368.56;4963000;28;45319;-55
2022/11/12 11:56:26;;;;;;;;;24.75;22.75;;;;;18.92;60.70;102369.22;4961829;28;45356;-56
2022/11/12 11:59:13;;;;;;;;;24.50;23.25;;;;;19.06;60.33;102374.22;4941435;28;45525;-56
2022/11/12 12:02:16;;;;;;;;;22.50;21.50;;;;;19.16;60.68;102362.44;4959085;28;46286;-56
2022/11/12 12:04:50;;;;;;;;;25.25;25.00;;;;;19.29;60.54;102365.66;4940200;28;45284;-56
2022/11/12 12:07:24;;;;;;;;;22.00;22.00;;;;;19.36;60.15;102356.59;4963118;28;45305;-56
2022/11/12 12:10:13;;;;;;;;;22.25;20.75;;;;;19.52;59.88;102358.84;4962659;28;45629;-56
2022/11/12 12:13:12;;;;;;;;;23.25;22.50;;;;;19.65;60.42;102361.16;4963064;28;46354;-57
2022/11/12 12:15:55;;;;;;;;;23.75;21.50;;;;;19.78;60.36;102360.81;4954446;28;45433;-57
2022/11/12 12:18:51;;;;;;;;;22.25;20.75;;;;;19.91;59.85;102351.59;4963143;28;45307;-56
2022/11/12 12:21:18;;;;;;;;;22.75;20.50;;;;;20.02;59.96;102351.28;4955339;28;45364;-56
2022/11/12 12:24:01;;;;;;;;;24.00;20.50;;;;;20.14;60.10;102339.41;4962422;28;46216;-57
2022/11/12 12:26:36;;;;;;;;;22.00;22.00;;;;;20.24;60.13;102338.22;4962647;28;45370;-57
2022/11/12 12:29:14;;;;;;;;;24.75;23.50;;;;;20.35;60.00;102337.91;4962994;28;45361;-58
2022/11/12 12:31:49;;;;;;;;;25.00;22.50;;;;;20.46;59.31;102340.22;4962551;28;45558;-58
2022/11/12 12:34:25;;;;;;;;;26.25;22.50;;;;;20.52;59.96;102331.16;4961612;28;45517;-58
2022/11/12 12:36:58;;;;;;;;;32.75;26.50;;;;;20.65;59.67;102327.16;4962872;28;45351;-58
2022/11/12 12:39:53;;;;;;;;;20.00;19.00;;;;;20.75;59.35;102328.69;4962433;28;45318;-58
2022/11/12 12:42:28;;;;;;;;;24.50;19.00;;;;;20.85;59.30;102317.69;4962698;28;45645;-58
2022/11/12 12:45:00;;;;;;;;;19.00;16.00;;;;;20.95;58.82;102319.13;4962277;28;45315;-58
2022/11/12 12:47:29;;;;;;;;;18.75;17.25;;;;;21.04;58.96;102323.28;4962431;28;45229;-57
2022/11/12 12:49:57;;;;;;;;;20.25;18.75;;;;;21.14;58.74;102313.16;4962403;28;45349;-57
2022/11/12 12:52:22;;;;;;;;;19.75;19.00;;;;;21.15;59.37;102299.75;4962305;28;45454;-58
2022/11/12 12:54:50;;;;;;;;;16.00;14.50;;;;;21.28;58.89;102310.88;4962206;28;46200;-57
2022/11/12 12:57:38;;;;;;;;;13.00;13.00;;;;;21.38;58.75;102314.13;4962136;28;45173;-57
2022/11/12 13:00:29;;;;;;;;;15.25;13.75;;;;;21.48;58.67;102309.31;4962301;28;45496;-57
2022/11/12 13:02:55;;;;;;;;;18.25;13.50;;;;;21.55;58.15;102298.38;4962139;28;45457;-58
2022/11/12 13:05:41;;;;;;;;;17.75;17.75;;;;;21.69;58.91;102289.84;4961760;28;46067;-58
2022/11/12 13:08:12;;;;;;;;;19.50;17.00;;;;;21.80;58.46;102286.78;4962049;28;45342;-58
2022/11/12 13:10:40;;;;;;;;;16.25;15.50;;;;;21.95;58.34;102296.06;4961703;28;45201;-58
2022/11/12 13:13:22;;;;;;;;;20.75;17.50;;;;;22.03;58.23;102291.25;4961996;28;45305;-58
2022/11/12 13:15:57;;;;;;;;;19.25;17.75;;;;;22.15;58.57;102292.63;4962065;28;46033;-58
2022/11/12 13:18:41;;;;;;;;;17.50;17.50;;;;;22.26;58.08;102286.81;4961844;28;45524;-58
2022/11/12 13:21:11;;;;;;;;;15.50;13.50;;;;;22.37;57.88;102291.81;4952635;28;45470;-58
2022/11/12 13:24:05;;;;;;;;;16.25;16.25;;;;;22.45;57.94;102279.00;4961608;28;45355;-58
2022/11/12 13:26:53;;;;;;;;;16.25;15.00;;;;;22.52;57.83;102285.81;4961715;28;45465;-59
2022/11/12 13:29:27;;;;;;;;;18.25;18.25;;;;;22.56;57.63;102276.75;4961932;28;45363;-59
2022/11/12 13:32:30;;;;;;;;;17.75;16.75;;;;;22.62;57.14;102272.94;4961707;28;45313;-58
2022/11/12 13:35:10;;;;;;;;;18.00;16.75;;;;;22.67;57.29;102278.13;4940067;28;45410;-58
2022/11/12 13:37:43;;;;;;;;;16.75;16.75;;;;;22.70;57.22;102267.25;4959287;28;45319;-59
2022/11/12 13:40:13;;;;;;;;;17.75;16.50;;;;;22.76;57.23;102264.31;4961592;28;45381;-58
2022/11/12 13:42:48;;;;;;;;;15.50;14.50;;;;;22.81;57.01;102264.16;4960210;28;45252;-59
2022/11/12 13:45:15;;;;;;;;;16.50;16.25;;;;;22.84;57.17;102261.31;4960577;28;45364;-58
2022/11/12 13:47:41;;;;;;;;;14.25;13.25;;;;;22.92;56.90;102252.94;4961337;28;45390;-59
2022/11/12 13:50:12;;;;;;;;;20.50;18.75;;;;;23.02;57.17;102251.66;4961270;28;45484;-58
2022/11/12 13:52:39;;;;;;;;;18.00;17.25;;;;;23.12;57.32;102252.09;4942889;28;45368;-58
2022/11/12 13:55:21;;;;;;;;;17.50;16.50;;;;;23.22;57.31;102242.78;4946263;28;45309;-58
2022/11/12 13:57:51;;;;;;;;;14.75;14.00;;;;;23.35;57.06;102243.09;4953626;28;46412;-59
2022/11/12 14:00:16;;;;;;;;;19.75;19.75;;;;;23.47;57.43;102241.66;4961237;28;45437;-59
2022/11/12 14:02:52;;;;;;;;;20.50;18.75;;;;;23.57;56.75;102248.38;4961322;28;45468;-58
2022/11/12 14:05:24;;;;;;;;;19.25;17.00;;;;;23.66;56.93;102247.94;4960792;28;45636;-59
2022/11/12 14:08:35;;;;;;;;;18.75;17.75;;;;;23.73;56.73;102253.03;4954418;28;48584;-58
2022/11/12 14:11:16;;;;;;;;;19.00;18.00;;;;;23.77;56.31;102246.56;4948018;28;45391;-57
2022/11/12 14:13:50;;;;;;;;;19.00;19.00;;;;;23.81;56.47;102245.47;4961154;28;45480;-57
2022/11/12 14:16:37;;;;;;;;;16.25;16.25;;;;;23.86;55.93;102240.75;4961093;28;45442;-58
2022/11/12 14:19:39;;;;;;;;;15.50;14.50;;;;;23.91;56.04;102244.16;4960997;28;45364;-57
2022/11/12 14:22:07;;;;;;;;;14.00;12.50;;;;;23.93;55.69;102236.88;4960957;28;45274;-58
2022/11/12 14:24:33;;;;;;;;;16.75;13.50;;;;;23.94;55.58;102244.00;4960482;28;45247;-58
2022/11/12 14:26:59;;;;;;;;;17.50;15.75;;;;;23.94;55.97;102232.41;4942498;28;45401;-57
2022/11/12 14:29:24;;;;;;;;;13.25;13.25;;;;;23.93;55.72;102236.03;4949124;28;46567;-57
2022/11/12 14:32:00;;;;;;;;;15.50;15.50;;;;;23.92;55.60;102232.44;4941439;28;45247;-58
2022/11/12 14:34:27;;;;;;;;;15.25;13.75;;;;;23.89;55.31;102232.59;4940601;28;45496;-58
2022/11/12 14:36:54;;;;;;;;;14.50;12.75;;;;;23.83;55.69;102224.81;4941658;28;45230;-58
2022/11/12 14:39:22;;;;;;;;;13.25;12.50;;;;;23.78;55.24;102219.66;4940923;28;45461;-58
2022/11/12 14:41:49;;;;;;;;;15.50;12.25;;;;;23.75;55.03;102219.81;4941475;28;45428;-58
2022/11/12 14:44:20;;;;;;;;;10.75;10.75;;;;;23.74;55.36;102215.38;4940110;28;45304;-58
2022/11/12 14:46:52;;;;;;;;;9.50;9.50;;;;;23.73;55.15;102204.72;4941543;28;45253;-58
2022/11/12 14:49:43;;;;;;;;;12.50;12.50;;;;;23.65;54.98;102191.66;4941080;28;46205;-59
2022/11/12 14:52:23;;;;;;;;;11.75;10.50;;;;;23.70;55.02;102205.75;4940185;28;46248;-59
2022/11/12 14:54:53;;;;;;;;;11.25;10.50;;;;;23.67;54.83;102201.38;4949721;28;45318;-59
2022/11/12 14:57:24;;;;;;;;;12.50;12.50;;;;;23.63;55.18;102210.50;4960490;28;45419;-58
2022/11/12 14:59:50;;;;;;;;;13.25;12.50;;;;;23.61;54.70;102206.16;4960665;28;45485;-58
2022/11/12 15:02:20;;;;;;;;;12.00;10.75;;;;;23.56;54.93;102200.13;4959069;28;45348;-59
2022/11/12 15:04:57;;;;;;;;;9.75;9.75;;;;;23.50;54.77;102203.97;4960645;28;45426;-58
2022/11/12 15:07:32;;;;;;;;;13.25;12.25;;;;;23.42;54.49;102203.44;4954331;28;45343;-58
2022/11/12 15:09:58;;;;;;;;;12.00;12.00;;;;;23.31;54.74;102199.44;4960442;28;46243;-58
2022/11/12 15:12:27;;;;;;;;;16.25;14.75;;;;;23.19;54.89;102205.34;4960222;28;45279;-58
2022/11/12 15:15:06;;;;;;;;;15.00;12.50;;;;;23.03;54.39;102200.66;4960576;28;45236;-59
2022/11/12 15:17:33;;;;;;;;;13.25;12.50;;;;;22.87;54.50;102200.44;4960913;28;45548;-59
2022/11/12 15:20:05;;;;;;;;;13.50;13.25;;;;;22.72;54.47;102206.47;4960261;28;46023;-59
2022/11/12 15:22:31;;;;;;;;;12.75;11.25;;;;;22.53;54.62;102201.00;4959420;28;45434;-59
2022/11/12 15:25:09;;;;;;;;;13.75;12.00;;;;;22.34;54.20;102199.06;4960570;28;45187;-59
2022/11/12 15:27:37;;;;;;;;;15.75;12.50;;;;;22.19;54.27;102202.34;4960542;28;45243;-59
2022/11/12 15:30:16;;;;;;;;;12.75;12.00;;;;;22.00;54.52;102196.84;4960220;28;46190;-60
2022/11/12 15:32:42;;;;;;;;;12.25;12.25;;;;;21.83;54.41;102192.16;4960352;28;45950;-59
2022/11/12 15:35:26;;;;;;;;;14.50;13.00;;;;;21.66;54.31;102192.78;4960453;28;45314;-59
2022/11/12 15:37:52;;;;;;;;;15.75;13.50;;;;;21.47;54.54;102187.25;4954530;28;45447;-59
2022/11/12 15:40:20;;;;;;;;;15.00;14.00;;;;;21.33;54.62;102191.28;4958914;28;47659;-59
2022/11/12 15:42:47;;;;;;;;;15.25;14.25;;;;;21.18;54.69;102184.72;4959996;28;45732;-60
2022/11/12 15:45:15;;;;;;;;;16.00;14.00;;;;;21.02;54.60;102180.84;4961498;28;45354;-59
2022/11/12 15:47:41;;;;;;;;;20.25;17.00;;;;;20.86;54.70;102186.72;4963493;28;45481;-59
2022/11/12 15:50:12;;;;;;;;;18.25;17.25;;;;;20.73;54.53;102178.28;4963124;28;46327;-60
2022/11/12 15:52:41;;;;;;;;;20.75;17.00;;;;;20.60;54.40;102176.91;4963222;28;45407;-59
2022/11/12 15:55:08;;;;;;;;;20.50;18.00;;;;;20.47;54.93;102176.44;4962208;28;45289;-59
2022/11/12 15:57:40;;;;;;;;;20.25;17.50;;;;;20.34;54.78;102184.00;4963134;28;45272;-60
2022/11/12 16:00:17;;;;;;;;;28.00;25.00;;;;;20.22;55.21;102181.72;4963104;28;45430;-60
2022/11/12 16:02:44;;;;;;;;;29.75;25.25;;;;;20.09;55.36;102182.09;4963304;28;45481;-60
2022/11/12 16:05:14;;;;;;;;;34.50;30.00;;;;;19.97;55.04;102174.47;4962652;28;45351;-60
2022/11/12 16:07:40;;;;;;;;;32.50;29.75;;;;;19.85;54.95;102164.16;4949142;28;45433;-60
2022/11/12 16:10:06;;;;;;;;;31.75;28.75;;;;;19.75;54.87;102168.91;4962996;28;45257;-60
2022/11/12 16:12:32;;;;;;;;;28.25;28.00;;;;;19.62;55.35;102169.28;4963043;28;46495;-60
2022/11/12 16:14:58;;;;;;;;;31.75;29.75;;;;;19.52;55.53;102172.25;4963094;28;45369;-60
2022/11/12 16:17:23;;;;;;;;;27.25;27.25;;;;;19.40;55.21;102178.81;4949007;28;45648;-61
2022/11/12 16:19:49;;;;;;;;;28.25;25.25;;;;;19.30;55.30;102172.88;4962554;28;46198;-60
2022/11/12 16:22:14;;;;;;;;;30.50;27.75;;;;;19.21;55.35;102173.13;4962831;28;45254;-60
2022/11/12 16:24:41;;;;;;;;;35.50;32.00;;;;;19.09;55.23;102171.66;4963194;28;45505;-60
2022/11/12 16:27:12;;;;;;;;;34.50;31.00;;;;;19.00;55.27;102173.69;4961987;28;45533;-60
2022/11/12 16:29:37;;;;;;;;;36.25;31.25;;;;;18.90;55.63;102180.13;4962966;28;45692;-59
2022/11/12 16:32:03;;;;;;;;;31.50;28.75;;;;;18.81;55.70;102180.34;4962827;28;45310;-59
2022/11/12 16:34:28;;;;;;;;;31.25;28.50;;;;;18.70;55.73;102177.97;4963116;28;45454;-60
2022/11/12 16:36:55;;;;;;;;;48.25;39.50;;;;;18.61;56.05;102187.06;4959009;28;45164;-61
2022/11/12 16:39:20;;;;;;;;;40.25;34.25;;;;;18.50;55.89;102174.03;4960252;28;45509;-61
2022/11/12 16:41:45;;;;;;;;;46.50;37.75;;;;;18.41;55.95;102168.91;4962739;28;45370;-59
2022/11/12 16:44:11;;;;;;;;;43.75;37.25;;;;;18.33;55.82;102169.09;4962448;28;45223;-60
2022/11/12 16:46:41;;;;;;;;;45.00;34.75;;;;;18.23;56.01;102169.38;4962815;28;45286;-58
2022/11/12 16:49:14;;;;;;;;;37.00;33.25;;;;;18.15;56.12;102159.78;4962139;28;46423;-59
2022/11/12 16:51:40;;;;;;;;;34.00;30.50;;;;;18.05;56.09;102163.59;4962575;28;45346;-59
2022/11/12 16:54:05;;;;;;;;;48.00;40.00;;;;;17.97;55.96;102163.72;4960932;28;45679;-58
2022/11/12 16:56:31;;;;;;;;;43.50;36.50;;;;;17.90;56.12;102164.78;4961164;28;45358;-59
2022/11/12 16:58:57;;;;;;;;;45.50;37.50;;;;;17.82;56.29;102172.03;4962085;28;46345;-59
2022/11/12 17:01:30;;;;;;;;;51.50;42.25;;;;;17.76;56.28;102172.16;4961724;28;45226;-59
2022/11/12 17:03:56;;;;;;;;;51.25;42.00;;;;;17.66;56.60;102155.53;4960773;28;45427;-59
2022/11/12 17:06:30;;;;;;;;;59.00;46.50;;;;;17.58;56.65;102154.81;4959696;28;45581;-59
2022/11/12 17:08:55;;;;;;;;;59.50;46.75;;;;;17.53;56.32;102161.13;4959887;28;46526;-60
2022/11/12 17:11:20;;;;;;;;;57.50;46.25;;;;;17.47;56.30;102157.69;4962010;28;45334;-60
2022/11/12 17:13:46;;;;;;;;;53.75;44.50;;;;;17.41;56.64;102160.47;4962312;28;45343;-59
2022/11/12 17:16:11;;;;;;;;;59.75;46.50;;;;;17.35;56.49;102156.19;4961991;28;46790;-60
2022/11/12 17:18:37;;;;;;;;;55.75;45.75;;;;;17.27;56.69;102155.44;4961685;28;45989;-59
2022/11/12 17:21:21;;;;;;;;;67.00;54.50;;;;;17.21;56.87;102154.66;4961690;28;45269;-59
2022/11/12 17:23:46;;;;;;;;;65.00;52.75;;;;;17.15;56.92;102160.09;4961667;28;45338;-61
2022/11/12 17:26:15;;;;;;;;;77.33;64.00;;;;;17.10;56.80;102161.09;4961233;28;45160;-59
2022/11/12 17:28:41;;;;;;;;;74.67;60.67;;;;;17.03;57.01;102158.56;4961521;28;45248;-60
2022/11/12 17:31:18;;;;;;;;;71.50;57.25;;;;;16.98;56.88;102148.91;4962021;28;45217;-60
2022/11/12 17:33:46;;;;;;;;;70.00;53.25;;;;;16.92;57.08;102152.56;4962145;28;45528;-60
2022/11/12 17:36:17;;;;;;;;;73.33;58.67;;;;;16.84;57.16;102144.72;4961639;28;45484;-60
2022/11/12 17:38:43;;;;;;;;;76.00;59.33;;;;;16.78;57.30;102141.28;4961473;28;45748;-60
2022/11/12 17:41:09;;;;;;;;;73.00;57.25;;;;;16.74;57.19;102153.72;4961618;28;45286;-60
2022/11/12 17:43:35;;;;;;;;;71.25;56.25;;;;;16.69;57.27;102153.84;4961943;28;45446;-59
2022/11/12 17:46:01;;;;;;;;;64.00;51.00;;;;;16.64;57.52;102147.72;4961533;28;45262;-59
2022/11/12 17:48:29;;;;;;;;;71.25;55.75;;;;;16.58;57.34;102140.72;4960268;28;46525;-60
2022/11/12 17:51:11;;;;;;;;;70.50;55.75;;;;;16.51;57.46;102139.06;4961532;28;45184;-60
2022/11/12 17:53:38;;;;;;;;;67.50;54.00;;;;;16.45;57.71;102136.53;4961656;28;45394;-60
2022/11/12 17:56:03;;;;;;;;;83.67;73.67;;;;;16.42;57.63;102147.19;4961252;28;45485;-60
2022/11/12 17:58:29;;;;;;;;;70.25;55.50;;;;;16.36;57.60;102147.31;4961083;28;46134;-59
2022/11/12 18:00:55;;;;;;;;;72.25;56.25;;;;;16.32;57.50;102145.59;4961133;28;45390;-59
2022/11/12 18:03:20;;;;;;;;;70.00;55.00;;;;;16.28;58.02;102149.22;4961590;28;45317;-60
2022/11/12 18:05:54;;;;;;;;;66.50;53.00;;;;;16.20;57.57;102142.25;4953662;28;45785;-63
2022/11/12 18:08:21;;;;;;;;;66.00;51.00;;;;;16.17;57.96;102152.03;4959658;28;46467;-63
2022/11/12 18:10:46;;;;;;;;;84.33;75.67;;;;;16.13;57.73;102145.88;4966721;28;45359;-63
2022/11/12 18:13:11;;;;;;;;;73.25;57.50;;;;;16.08;58.15;102148.59;4960387;28;45311;-62
2022/11/12 18:15:37;;;;;;;;;68.25;54.00;;;;;16.04;58.11;102151.34;4960150;28;45342;-62
2022/11/12 18:18:03;;;;;;;;;67.50;54.25;;;;;15.99;58.31;102151.38;4960312;28;45363;-61
2022/11/12 18:20:28;;;;;;;;;103.33;90.00;;;;;15.95;58.40;102154.09;4960542;28;45325;-61
2022/11/12 18:22:53;;;;;;;;;74.00;57.25;;;;;15.88;58.00;102146.22;4953676;28;45481;-61
2022/11/12 18:25:19;;;;;;;;;80.00;69.33;;;;;15.87;58.37;102152.47;4957251;28;45449;-63
2022/11/12 18:27:44;;;;;;;;;71.25;55.75;;;;;15.84;58.08;102151.63;4959798;28;55251;-62
2022/11/12 18:30:10;;;;;;;;;78.00;63.33;;;;;15.72;58.28;102134.94;4960764;28;45327;-62
2022/11/12 18:32:35;;;;;;;;;81.00;71.67;;;;;15.75;58.51;102136.69;4960304;28;45314;-62
2022/11/12 18:35:01;;;;;;;;;77.00;60.33;;;;;15.75;58.55;102145.50;4954963;28;45464;-64
2022/11/12 18:37:26;;;;;;;;;82.67;73.00;;;;;15.72;58.43;102144.66;4955822;28;47288;-61
2022/11/12 18:39:51;;;;;;;;;86.00;79.00;;;;;15.69;58.82;102150.88;4947170;28;45303;-61
2022/11/12 18:42:16;;;;;;;;;75.67;63.33;;;;;15.66;58.78;102150.03;4958620;28;45347;-61
2022/11/12 18:44:42;;;;;;;;;78.67;64.00;;;;;15.63;58.96;102150.09;4952001;28;45476;-60
2022/11/12 18:47:07;;;;;;;;;84.33;72.00;;;;;15.61;58.55;102155.41;4957675;28;50068;-60
2022/11/12 18:49:32;;;;;;;;;90.67;85.00;;;;;15.57;58.56;102146.63;4953709;28;45326;-60
2022/11/12 18:51:58;;;;;;;;;81.00;70.67;;;;;15.55;58.36;102143.09;4950982;28;45242;-61
2022/11/12 18:54:23;;;;;;;;;71.33;60.00;;;;;15.50;58.91;102134.34;4951541;28;45225;-60
2022/11/12 18:56:48;;;;;;;;;78.00;65.25;;;;;15.49;58.56;102135.25;4957005;28;46124;-61
2022/11/12 19:59:47;;;;;;;;;61.50;48.25;;;;;15.23;59.29;102103.78;5453684;23;46140;-61
2022/11/12 20:02:12;;;;;;;;;53.25;43.00;;;;;15.21;59.40;102101.16;4962459;28;45410;-60
2022/11/12 20:04:38;;;;;;;;;57.00;47.75;;;;;15.21;59.58;102089.69;4962681;28;45387;-61
2022/11/12 20:07:03;;;;;;;;;60.00;47.50;;;;;15.20;59.63;102088.81;4955329;28;46147;-62
2022/11/12 20:09:29;;;;;;;;;61.00;49.25;;;;;15.18;59.50;102087.06;4962344;28;46072;-60
2022/11/12 20:11:54;;;;;;;;;60.75;48.25;;;;;15.16;59.42;102087.09;4959583;28;45342;-61
2022/11/12 20:14:19;;;;;;;;;61.50;48.50;;;;;15.18;59.62;102092.38;4954988;28;45495;-61
2022/11/12 20:16:45;;;;;;;;;64.75;49.25;;;;;15.16;59.75;102086.22;4960856;28;45214;-61
2022/11/12 20:19:10;;;;;;;;;62.50;49.50;;;;;15.15;59.57;102085.34;4962349;28;51011;-61
2022/11/12 20:21:36;;;;;;;;;58.25;47.50;;;;;15.11;59.84;102073.03;4959476;28;45383;-63
2022/11/12 20:24:01;;;;;;;;;65.25;50.75;;;;;15.10;59.81;102071.28;4962565;28;45325;-63